createdAt,value
2022-11-29T00:00:58.415Z,11.43
2022-11-29T00:03:25.577Z,8.70
2022-11-29T00:05:52.303Z,10.98
2022-11-29T00:08:20.035Z,24.70
2022-11-29T00:10:46.860Z,11.27
2022-11-29T00:13:13.580Z,17.30
2022-11-29T00:15:40.346Z,7.72
2022-11-29T00:18:07.199Z,35.33
2022-11-29T00:20:34.225Z,19.20
2022-11-29T00:23:01.187Z,10.80
2022-11-29T00:25:27.969Z,11.52
2022-11-29T00:27:54.677Z,23.05
2022-11-29T00:30:21.474Z,21.38
2022-11-29T00:35:28.746Z,14.55
2022-11-29T00:37:55.439Z,25.10
2022-11-29T00:40:22.094Z,23.15
2022-11-29T00:42:48.772Z,27.20
2022-11-29T00:45:15.422Z,19.83
2022-11-29T00:47:42.142Z,15.82
2022-11-29T00:50:09.024Z,35.42
2022-11-29T00:52:35.729Z,26.90
2022-11-29T00:55:02.844Z,20.15
2022-11-29T00:57:29.581Z,22.55
2022-11-29T00:59:56.302Z,30.48
2022-11-29T01:02:23.087Z,29.02
2022-11-29T01:04:49.807Z,28.00
2022-11-29T01:07:16.540Z,22.83
2022-11-29T01:09:43.224Z,23.77
2022-11-29T01:12:09.915Z,27.35
2022-11-29T01:14:36.578Z,19.63
2022-11-29T01:17:03.344Z,22.67
2022-11-29T01:19:30.039Z,30.33
2022-11-29T01:21:56.709Z,34.38
2022-11-29T01:24:23.440Z,22.50
2022-11-29T01:26:50.141Z,22.15
2022-11-29T01:29:16.890Z,26.25
2022-11-29T01:31:43.594Z,14.77
2022-11-29T01:34:10.473Z,45.13
2022-11-29T01:36:37.176Z,16.15
2022-11-29T01:39:04.650Z,16.88
2022-11-29T01:41:32.580Z,16.25
2022-11-29T01:44:04.660Z,38.45
2022-11-29T01:46:39.122Z,20.08
2022-11-29T01:49:28.442Z,29.92
2022-11-29T01:51:57.882Z,28.48
2022-11-29T01:54:24.554Z,27.85
2022-11-29T01:56:51.980Z,15.98
2022-11-29T01:59:20.643Z,17.77
2022-11-29T02:01:47.468Z,19.88
2022-11-29T02:04:14.188Z,24.85
2022-11-29T02:06:40.890Z,29.38
2022-11-29T02:09:21.349Z,20.05
2022-11-29T02:11:58.061Z,19.63
2022-11-29T02:14:55.816Z,19.65
2022-11-29T02:17:45.085Z,18.98
2022-11-29T02:20:40.685Z,28.17
2022-11-29T02:23:22.275Z,21.40
2022-11-29T02:26:13.206Z,19.08
2022-11-29T02:29:24.173Z,30.17
2022-11-29T02:32:31.389Z,22.27
2022-11-29T02:35:33.696Z,19.23
2022-11-29T02:38:15.657Z,33.03
2022-11-29T02:41:00.574Z,32.40
2022-11-29T02:43:50.671Z,24.73
2022-11-29T02:46:43.724Z,33.35
2022-11-29T02:49:22.318Z,47.97
2022-11-29T02:51:59.276Z,37.88
2022-11-29T02:54:48.187Z,25.45
2022-11-29T02:57:21.845Z,31.08
2022-11-29T03:00:05.028Z,31.80
2022-11-29T03:02:51.207Z,26.10
2022-11-29T03:05:59.432Z,28.38
2022-11-29T03:09:02.753Z,28.95
2022-11-29T03:12:07.788Z,23.17
2022-11-29T03:14:42.439Z,29.02
2022-11-29T03:17:12.169Z,27.42
2022-11-29T03:20:18.293Z,26.02
2022-11-29T03:23:08.993Z,29.27
2022-11-29T03:26:01.932Z,33.40
2022-11-29T03:28:46.579Z,43.30
2022-11-29T03:31:27.520Z,34.47
2022-11-29T03:34:16.554Z,38.60
2022-11-29T03:37:00.541Z,24.85
2022-11-29T03:39:43.239Z,33.10
2022-11-29T03:42:27.655Z,33.88
2022-11-29T03:45:19.032Z,26.13
2022-11-29T03:48:12.566Z,38.80
2022-11-29T03:50:43.329Z,24.45
2022-11-29T03:53:27.797Z,39.08
2022-11-29T03:56:01.673Z,25.30
2022-11-29T03:58:37.228Z,28.63
2022-11-29T04:01:10.166Z,39.17
2022-11-29T04:06:40.332Z,32.92
2022-11-29T04:09:44.552Z,22.38
2022-11-29T04:12:21.481Z,32.17
2022-11-29T04:14:56.409Z,28.05
2022-11-29T04:17:41.675Z,21.35
2022-11-29T04:20:40.235Z,16.42
2022-11-29T04:23:45.514Z,25.98
2022-11-29T04:26:23.747Z,34.25
2022-11-29T04:28:53.284Z,25.55
2022-11-29T04:31:45.798Z,18.65
2022-11-29T04:34:46.928Z,18.80
2022-11-29T04:37:18.691Z,21.33
2022-11-29T04:40:29.537Z,16.92
2022-11-29T04:43:20.353Z,19.23
2022-11-29T04:46:00.419Z,26.85
2022-11-29T04:48:58.916Z,24.10
2022-11-29T04:51:31.770Z,19.15
2022-11-29T04:56:40.903Z,28.52
2022-11-29T04:59:26.696Z,35.70
2022-11-29T05:02:26.794Z,35.72
2022-11-29T05:05:00.802Z,44.17
2022-11-29T05:07:56.570Z,28.65
2022-11-29T05:10:40.476Z,29.02
2022-11-29T05:13:19.475Z,25.60
2022-11-29T05:16:11.212Z,29.58
2022-11-29T05:18:56.663Z,27.23
2022-11-29T05:21:41.833Z,24.25
2022-11-29T05:24:23.263Z,38.00
2022-11-29T05:27:02.110Z,22.35
2022-11-29T05:30:06.196Z,26.02
2022-11-29T05:32:44.428Z,22.98
2022-11-29T05:35:29.814Z,20.13
2022-11-29T05:38:35.257Z,47.33
2022-11-29T05:41:20.467Z,21.38
2022-11-29T05:44:19.765Z,15.45
2022-11-29T05:47:03.755Z,23.77
2022-11-29T05:49:58.833Z,22.50
2022-11-29T05:52:32.871Z,22.95
2022-11-29T05:55:19.967Z,32.80
2022-11-29T05:57:52.457Z,30.58
2022-11-29T06:00:19.271Z,25.48
2022-11-29T06:03:27.311Z,18.92
2022-11-29T06:05:58.958Z,26.85
2022-11-29T06:08:44.089Z,22.08
2022-11-29T06:11:16.846Z,24.80
2022-11-29T06:14:06.627Z,19.38
2022-11-29T06:16:49.697Z,18.38
2022-11-29T06:22:24.488Z,51.28
2022-11-29T06:25:29.851Z,31.65
2022-11-29T06:28:20.544Z,44.35
2022-11-29T06:30:56.322Z,21.38
2022-11-29T06:33:25.289Z,12.93
2022-11-29T06:36:12.459Z,26.42
2022-11-29T06:38:39.335Z,20.98
2022-11-29T06:41:06.430Z,24.75
2022-11-29T06:43:33.414Z,19.80
2022-11-29T06:46:00.078Z,32.50
2022-11-29T06:48:28.104Z,26.85
2022-11-29T06:51:07.361Z,32.15
2022-11-29T06:53:56.836Z,55.28
2022-11-29T06:56:44.375Z,27.38
2022-11-29T06:59:43.627Z,36.55
2022-11-29T07:02:34.344Z,31.13
2022-11-29T07:05:10.008Z,23.33
2022-11-29T07:07:36.977Z,28.33
2022-11-29T07:10:04.589Z,41.25
2022-11-29T07:12:31.546Z,38.30
2022-11-29T07:14:58.582Z,55.83
2022-11-29T07:17:30.996Z,62.10
2022-11-29T07:20:03.328Z,28.25
2022-11-29T07:22:48.852Z,31.02
2022-11-29T07:25:27.639Z,34.28
2022-11-29T07:28:36.063Z,30.73
2022-11-29T07:31:31.871Z,42.95
2022-11-29T07:34:16.646Z,41.55
2022-11-29T07:37:03.295Z,30.08
2022-11-29T07:39:32.804Z,32.00
2022-11-29T07:42:43.567Z,16.63
2022-11-29T07:45:29.316Z,43.53
2022-11-29T07:47:56.066Z,22.40
2022-11-29T07:50:22.809Z,21.17
2022-11-29T07:52:49.653Z,28.15
2022-11-29T07:55:25.898Z,35.53
2022-11-29T07:57:52.779Z,32.50
2022-11-29T08:00:19.746Z,44.83
2022-11-29T08:02:48.116Z,31.67
2022-11-29T08:05:14.841Z,16.15
2022-11-29T08:07:41.662Z,52.63
2022-11-29T08:10:13.230Z,38.60
2022-11-29T08:12:44.814Z,33.80
2022-11-29T08:15:11.663Z,31.80
2022-11-29T08:17:38.684Z,33.00
2022-11-29T08:20:06.011Z,24.08
2022-11-29T08:22:32.687Z,39.28
2022-11-29T08:24:59.373Z,33.38
2022-11-29T08:27:26.259Z,39.75
2022-11-29T08:29:52.970Z,37.85
2022-11-29T08:32:19.742Z,40.70
2022-11-29T08:34:46.781Z,21.80
2022-11-29T08:37:13.686Z,32.08
2022-11-29T08:39:40.360Z,27.85
2022-11-29T08:42:07.067Z,17.98
2022-11-29T08:44:33.712Z,23.48
2022-11-29T08:47:00.417Z,52.85
2022-11-29T08:49:27.134Z,25.70
2022-11-29T08:51:53.832Z,28.08
2022-11-29T08:54:20.515Z,24.92
2022-11-29T08:57:31.005Z,31.60
2022-11-29T08:59:33.865Z,18.33
2022-11-29T09:02:00.672Z,13.07
2022-11-29T09:04:27.408Z,13.77
2022-11-29T09:06:54.108Z,28.52
2022-11-29T09:09:20.820Z,21.58
2022-11-29T09:11:49.554Z,10.45
2022-11-29T09:14:17.079Z,21.27
2022-11-29T09:16:43.804Z,16.23
2022-11-29T09:19:10.504Z,35.88
2022-11-29T09:21:37.167Z,21.30
2022-11-29T09:24:04.725Z,23.25
2022-11-29T09:26:33.734Z,21.92
2022-11-29T09:29:01.601Z,35.70
2022-11-29T09:31:29.028Z,19.70
2022-11-29T09:33:56.035Z,12.82
2022-11-29T09:36:28.182Z,21.35
2022-11-29T09:38:56.077Z,23.88
2022-11-29T09:41:45.651Z,37.90
2022-11-29T09:44:17.223Z,31.85
2022-11-29T09:47:05.768Z,32.00
2022-11-29T09:49:35.430Z,19.52
2022-11-29T09:52:24.277Z,12.45
2022-11-29T09:55:04.428Z,23.02
2022-11-29T09:57:31.146Z,29.85
2022-11-29T10:00:05.711Z,10.82
2022-11-29T10:02:40.758Z,19.42
2022-11-29T10:05:15.345Z,18.63
2022-11-29T10:07:46.513Z,21.25
2022-11-29T10:10:33.308Z,31.27
2022-11-29T10:13:15.851Z,43.85
2022-11-29T10:15:44.156Z,15.18
2022-11-29T10:18:50.093Z,18.90
2022-11-29T10:21:19.808Z,12.45
2022-11-29T10:23:57.814Z,48.20
2022-11-29T10:26:24.467Z,36.55
2022-11-29T10:28:51.220Z,20.63
2022-11-29T10:31:25.638Z,22.52
2022-11-29T10:33:52.843Z,18.55
2022-11-29T10:36:54.797Z,8.95
2022-11-29T10:39:26.146Z,10.18
2022-11-29T10:41:56.853Z,17.65
2022-11-29T10:44:23.545Z,21.52
2022-11-29T10:46:50.298Z,16.52
2022-11-29T10:49:18.668Z,12.75
2022-11-29T10:51:48.356Z,23.88
2022-11-29T10:54:31.624Z,14.60
2022-11-29T10:56:59.744Z,13.85
2022-11-29T10:59:28.409Z,20.95
2022-11-29T11:01:55.257Z,23.40
2022-11-29T11:04:26.670Z,19.55
2022-11-29T11:07:00.466Z,55.05
2022-11-29T11:09:40.373Z,10.60
2022-11-29T11:12:17.265Z,16.77
2022-11-29T11:14:44.518Z,8.57
2022-11-29T11:17:27.653Z,13.93
2022-11-29T11:20:04.273Z,13.43
2022-11-29T11:22:31.025Z,35.42
2022-11-29T11:25:04.133Z,17.35
2022-11-29T11:27:40.007Z,8.20
2022-11-29T11:30:18.382Z,22.98
2022-11-29T11:33:33.303Z,11.63
2022-11-29T11:36:25.548Z,15.60
2022-11-29T11:38:57.035Z,15.23
2022-11-29T11:41:33.686Z,14.38
2022-11-29T11:44:00.399Z,33.40
2022-11-29T11:46:46.268Z,39.38
2022-11-29T11:49:14.039Z,21.45
2022-11-29T11:51:41.977Z,11.73
2022-11-29T11:54:15.172Z,12.25
2022-11-29T11:56:41.884Z,16.73
2022-11-29T11:59:16.562Z,20.13
2022-11-29T12:01:43.245Z,17.67
2022-11-29T12:04:31.195Z,9.23
2022-11-29T12:07:01.466Z,37.53
2022-11-29T12:09:30.974Z,11.52
2022-11-29T12:12:06.633Z,13.18
2022-11-29T12:14:48.593Z,14.43
2022-11-29T12:17:36.672Z,32.05
2022-11-29T12:20:09.429Z,22.17
2022-11-29T12:22:48.483Z,12.70
2022-11-29T12:25:19.488Z,25.95
2022-11-29T12:27:46.220Z,27.15
2022-11-29T12:30:14.224Z,24.55
2022-11-29T12:32:43.763Z,13.38
2022-11-29T12:35:29.037Z,44.70
2022-11-29T12:38:07.659Z,43.28
2022-11-29T12:40:47.613Z,19.80
2022-11-29T12:43:32.280Z,21.65
2022-11-29T12:46:14.732Z,13.55
2022-11-29T12:49:01.368Z,25.73
2022-11-29T12:51:46.801Z,15.55
2022-11-29T12:54:28.765Z,9.73
2022-11-29T12:57:04.026Z,31.73
2022-11-29T12:59:30.674Z,30.80
2022-11-29T13:02:35.056Z,48.10
2022-11-29T13:05:25.728Z,31.05
2022-11-29T13:08:18.408Z,31.25
2022-11-29T13:11:13.078Z,24.25
2022-11-29T13:13:48.870Z,35.65
2022-11-29T13:16:35.072Z,30.65
2022-11-29T13:19:29.168Z,39.83
2022-11-29T13:22:18.634Z,23.58
2022-11-29T13:25:06.259Z,17.00
2022-11-29T13:27:37.031Z,27.05
2022-11-29T13:30:04.115Z,39.83
2022-11-29T13:32:40.101Z,35.00
2022-11-29T13:35:16.090Z,28.48
2022-11-29T13:37:50.610Z,30.33
2022-11-29T13:40:31.956Z,14.27
2022-11-29T13:43:09.070Z,25.98
2022-11-29T13:45:55.951Z,44.78
2022-11-29T13:48:28.078Z,17.73
2022-11-29T13:50:58.306Z,37.28
2022-11-29T13:53:48.144Z,18.15
2022-11-29T13:56:41.184Z,14.20
2022-11-29T13:59:08.765Z,31.17
2022-11-29T14:01:44.176Z,36.25
2022-11-29T14:04:40.246Z,20.90
2022-11-29T14:07:12.288Z,18.30
2022-11-29T14:10:02.785Z,47.55
2022-11-29T14:12:51.487Z,31.67
2022-11-29T14:15:23.082Z,41.13
2022-11-29T14:17:56.481Z,25.65
2022-11-29T14:20:23.144Z,23.52
2022-11-29T14:23:04.909Z,29.17
2022-11-29T14:28:23.019Z,46.17
2022-11-29T14:30:55.837Z,22.73
2022-11-29T14:35:56.357Z,22.92
2022-11-29T14:38:57.911Z,18.60
2022-11-29T14:41:48.448Z,28.80
2022-11-29T14:44:20.592Z,23.17
2022-11-29T14:46:47.922Z,33.17
2022-11-29T14:49:23.081Z,26.55
2022-11-29T14:52:26.353Z,23.80
2022-11-29T14:54:55.368Z,25.63
2022-11-29T14:57:47.429Z,20.88
2022-11-29T15:00:17.908Z,21.35
2022-11-29T15:02:48.472Z,26.70
2022-11-29T15:05:19.223Z,20.80
2022-11-29T15:08:02.230Z,25.50
2022-11-29T15:10:30.559Z,25.85
2022-11-29T15:12:59.276Z,45.38
2022-11-29T15:15:44.715Z,26.30
2022-11-29T15:18:29.999Z,51.80
2022-11-29T15:21:08.618Z,23.58
2022-11-29T15:23:41.965Z,46.83
2022-11-29T15:26:17.030Z,20.50
2022-11-29T15:28:43.837Z,27.77
2022-11-29T15:31:11.465Z,29.35
2022-11-29T15:33:42.006Z,55.92
2022-11-29T15:36:12.433Z,26.77
2022-11-29T15:38:43.145Z,58.00
2022-11-29T15:41:32.749Z,24.73
2022-11-29T15:44:01.512Z,35.67
2022-11-29T15:46:30.894Z,32.10
2022-11-29T15:49:19.332Z,41.42
2022-11-29T15:51:47.692Z,41.13
2022-11-29T15:54:19.564Z,28.95
2022-11-29T15:56:53.871Z,40.97
2022-11-29T15:59:40.530Z,50.13
2022-11-29T16:02:29.756Z,45.67
2022-11-29T16:04:58.399Z,70.70
2022-11-29T16:07:25.824Z,40.72
2022-11-29T16:10:34.964Z,43.88
2022-11-29T16:13:07.443Z,42.10
2022-11-29T16:15:35.921Z,32.28
2022-11-29T16:18:11.100Z,17.08
2022-11-29T16:20:37.868Z,18.48
2022-11-29T16:23:11.955Z,22.15
2022-11-29T16:25:59.420Z,33.67
2022-11-29T16:28:32.174Z,33.65
2022-11-29T16:30:58.872Z,30.92
2022-11-29T16:33:25.559Z,25.10
2022-11-29T16:36:02.409Z,41.65
2022-11-29T16:38:29.119Z,42.47
2022-11-29T16:41:23.043Z,21.20
2022-11-29T16:43:51.972Z,45.03
2022-11-29T16:46:28.877Z,26.17
2022-11-29T16:48:56.696Z,27.95
2022-11-29T16:51:32.318Z,41.25
2022-11-29T16:54:19.512Z,24.33
2022-11-29T16:56:46.218Z,20.33
2022-11-29T16:59:24.668Z,16.85
2022-11-29T17:01:55.445Z,40.35
2022-11-29T17:04:23.997Z,27.63
2022-11-29T17:06:54.870Z,40.03
2022-11-29T17:09:26.568Z,35.22
2022-11-29T17:11:53.952Z,33.17
2022-11-29T17:14:20.647Z,41.50
2022-11-29T17:16:47.438Z,40.03
2022-11-29T17:19:14.166Z,43.90
2022-11-29T17:21:40.883Z,43.92
2022-11-29T17:24:12.910Z,49.17
2022-11-29T17:26:40.559Z,53.03
2022-11-29T17:29:07.339Z,49.03
2022-11-29T17:31:34.114Z,42.85
2022-11-29T17:34:01.035Z,57.10
2022-11-29T17:36:27.835Z,49.03
2022-11-29T17:38:54.576Z,53.15
2022-11-29T17:41:23.062Z,45.97
2022-11-29T17:43:50.551Z,48.83
2022-11-29T17:46:24.882Z,57.25
2022-11-29T17:48:51.776Z,53.30
2022-11-29T17:51:49.996Z,72.85
2022-11-29T17:54:07.251Z,74.43
2022-11-29T17:56:33.986Z,45.63
2022-11-29T17:59:01.924Z,73.88
2022-11-29T18:01:30.057Z,61.03
2022-11-29T18:03:58.102Z,51.85
2022-11-29T18:06:26.336Z,55.08
2022-11-29T18:08:54.804Z,75.03
2022-11-29T18:11:27.825Z,31.92
2022-11-29T18:13:54.802Z,75.63
2022-11-29T18:16:29.052Z,47.25
2022-11-29T18:19:03.791Z,47.13
2022-11-29T18:21:30.726Z,50.63
2022-11-29T18:23:59.309Z,54.35
2022-11-29T18:26:26.212Z,70.07
2022-11-29T18:28:52.987Z,60.72
2022-11-29T18:31:24.288Z,63.13
2022-11-29T18:33:53.367Z,63.15
2022-11-29T18:36:25.092Z,74.90
2022-11-29T18:38:56.240Z,48.42
2022-11-29T18:41:23.223Z,38.70
2022-11-29T18:43:54.805Z,77.90
2022-11-29T18:46:21.696Z,54.67
2022-11-29T18:48:48.425Z,52.17
2022-11-29T18:51:18.049Z,45.60
2022-11-29T18:53:45.077Z,56.63
2022-11-29T18:56:19.477Z,52.83
2022-11-29T18:58:47.400Z,64.78
2022-11-29T19:01:18.750Z,52.03
2022-11-29T19:03:46.898Z,54.40
2022-11-29T19:06:15.223Z,52.38
2022-11-29T19:08:42.654Z,57.60
2022-11-29T19:11:11.028Z,92.72
2022-11-29T19:13:37.762Z,60.13
2022-11-29T19:16:05.017Z,59.40
2022-11-29T19:18:31.767Z,47.22
2022-11-29T19:21:16.986Z,54.88
2022-11-29T19:23:44.296Z,62.50
2022-11-29T19:26:11.979Z,58.78
2022-11-29T19:28:39.776Z,80.28
2022-11-29T19:31:06.905Z,62.15
2022-11-29T19:33:34.325Z,58.80
2022-11-29T19:36:11.611Z,66.50
2022-11-29T19:38:38.616Z,58.63
2022-11-29T19:41:12.027Z,44.33
2022-11-29T19:43:38.768Z,57.05
2022-11-29T19:46:29.580Z,65.45
2022-11-29T19:48:56.725Z,41.22
2022-11-29T19:51:24.156Z,57.17
2022-11-29T19:53:54.853Z,49.33
2022-11-29T19:56:21.851Z,54.67
2022-11-29T19:58:48.675Z,50.08
2022-11-29T20:01:17.224Z,44.58
2022-11-29T20:03:44.113Z,63.47
2022-11-29T20:06:10.994Z,55.17
2022-11-29T20:08:39.798Z,72.32
2022-11-29T20:11:19.048Z,60.25
2022-11-29T20:13:47.780Z,53.38
2022-11-29T20:16:15.611Z,54.08
2022-11-29T20:18:50.130Z,55.05
2022-11-29T20:21:32.856Z,50.42
2022-11-29T20:24:01.424Z,64.97
2022-11-29T20:26:28.727Z,50.17
2022-11-29T20:28:55.627Z,72.97
2022-11-29T20:31:22.794Z,45.60
2022-11-29T20:33:50.495Z,44.38
2022-11-29T20:36:41.444Z,62.13
2022-11-29T20:39:31.921Z,45.67
2022-11-29T20:42:31.446Z,55.75
2022-11-29T20:44:58.837Z,57.97
2022-11-29T20:47:25.918Z,43.28
2022-11-29T20:49:52.868Z,48.55
2022-11-29T20:52:28.884Z,59.80
2022-11-29T20:54:55.581Z,52.05
2022-11-29T20:57:22.324Z,54.63
2022-11-29T20:59:49.072Z,70.15
2022-11-29T21:02:15.830Z,63.70
2022-11-29T21:04:42.874Z,58.08
2022-11-29T21:07:11.555Z,56.00
2022-11-29T21:09:38.294Z,60.92
2022-11-29T21:12:05.496Z,64.65
2022-11-29T21:14:32.616Z,60.83
2022-11-29T21:17:02.817Z,65.70
2022-11-29T21:19:32.186Z,67.20
2022-11-29T21:22:02.420Z,79.20
2022-11-29T21:24:54.345Z,62.65
2022-11-29T21:27:27.572Z,55.28
2022-11-29T21:29:55.046Z,48.72
2022-11-29T21:32:23.673Z,67.50
2022-11-29T21:34:52.767Z,50.05
2022-11-29T21:37:20.639Z,55.42
2022-11-29T21:39:47.688Z,43.47
2022-11-29T21:42:14.526Z,50.42
2022-11-29T21:44:41.269Z,45.42
2022-11-29T21:47:08.018Z,43.20
2022-11-29T21:49:34.863Z,49.75
2022-11-29T21:52:01.719Z,68.50
2022-11-29T21:54:29.162Z,45.50
2022-11-29T21:56:56.006Z,39.92
2022-11-29T21:59:22.798Z,43.95
2022-11-29T22:01:49.685Z,38.83
2022-11-29T22:04:16.475Z,58.55
2022-11-29T22:06:43.270Z,56.10
2022-11-29T22:09:10.119Z,46.10
2022-11-29T22:11:36.965Z,57.55
2022-11-29T22:14:08.531Z,66.13
2022-11-29T22:16:35.413Z,45.78
2022-11-29T22:19:02.155Z,58.97
2022-11-29T22:21:28.842Z,51.30
2022-11-29T22:23:55.636Z,52.08
2022-11-29T22:26:22.489Z,52.88
2022-11-29T22:28:49.371Z,48.45
2022-11-29T22:31:16.353Z,42.63
2022-11-29T22:33:43.266Z,52.35
2022-11-29T22:36:11.899Z,46.30
2022-11-29T22:38:39.526Z,50.97
2022-11-29T22:41:08.135Z,47.63
2022-11-29T22:43:35.198Z,47.63
2022-11-29T22:46:31.581Z,63.20
2022-11-29T22:48:58.785Z,43.90
2022-11-29T22:51:27.671Z,51.08
2022-11-29T22:53:55.647Z,41.72
2022-11-29T22:56:23.315Z,49.97
2022-11-29T22:58:50.306Z,56.40
2022-11-29T23:01:23.656Z,51.17
2022-11-29T23:03:51.828Z,42.70
2022-11-29T23:06:26.661Z,63.38
2022-11-29T23:08:57.915Z,48.05
2022-11-29T23:11:26.666Z,83.38
2022-11-29T23:13:53.687Z,44.47
2022-11-29T23:16:22.011Z,46.00
2022-11-29T23:18:51.492Z,49.65
2022-11-29T23:21:22.523Z,69.75
2022-11-29T23:23:55.835Z,51.40
2022-11-29T23:26:46.128Z,39.22
2022-11-29T23:29:15.079Z,64.03
2022-11-29T23:31:42.083Z,42.47
2022-11-29T23:34:09.052Z,57.50
2022-11-29T23:36:35.933Z,35.92
2022-11-29T23:39:03.081Z,45.38
2022-11-29T23:41:29.993Z,43.65
2022-11-29T23:43:56.767Z,48.70
2022-11-29T23:46:23.955Z,55.63
2022-11-29T23:48:50.780Z,54.00
2022-11-29T23:51:17.820Z,75.32
2022-11-29T23:53:44.680Z,64.07
2022-11-29T23:56:13.718Z,50.47
2022-11-29T23:58:40.708Z,48.95
